Time;durP1;ratioP1;P1;durP2;ratioP2;P2;SDS_P1;SDS_P2;PMS_P1;PMS_P2;Temp;Humidity;BMP_temperature;BMP_pressure;BME280_temperature;BME280_humidity;BME280_pressure;Samples;Min_cycle;Max_cycle;Signal;HPM_P1;HPM_P2
2022/12/30 00:01:24;;;;;;;16.08;2.95;;;5.50;99.90;;;;;;5080817;27;19920;-61
2022/12/30 00:03:50;;;;;;;21.33;2.95;;;5.50;99.90;;;;;;5076174;28;20047;-61
2022/12/30 00:06:20;;;;;;;21.42;3.08;;;5.50;99.90;;;;;;5077980;28;20532;-62
2022/12/30 00:08:48;;;;;;;13.98;3.22;;;5.50;99.90;;;;;;5076105;28;20115;-62
2022/12/30 00:11:15;;;;;;;17.73;2.83;;;5.50;99.90;;;;;;5080378;28;20040;-61
2022/12/30 00:33:44;;;;;;;11.77;2.35;;;5.40;99.90;;;;;;5065499;28;20036;-61
2022/12/30 00:36:10;;;;;;;22.20;2.90;;;5.50;99.90;;;;;;5068035;28;20032;-62
2022/12/30 00:38:36;;;;;;;14.75;3.33;;;5.50;99.90;;;;;;5072150;28;20040;-61
2022/12/30 00:43:56;;;;;;;13.27;2.17;;;5.50;99.90;;;;;;4993015;28;20038;-60
2022/12/30 00:46:23;;;;;;;16.52;4.05;;;5.50;99.90;;;;;;5063749;28;20055;-61
2022/12/30 00:57:03;;;;;;;13.95;2.80;;;5.40;99.90;;;;;;5068166;28;20044;-61
2022/12/30 00:59:29;;;;;;;24.85;3.60;;;5.30;99.90;;;;;;5074121;28;20118;-60
2022/12/30 01:01:54;;;;;;;13.55;2.05;;;5.30;99.90;;;;;;5070360;28;20065;-62
2022/12/30 01:04:20;;;;;;;11.68;2.70;;;5.20;99.90;;;;;;5065548;28;20032;-62
2022/12/30 01:06:45;;;;;;;20.30;2.85;;;5.20;99.90;;;;;;5071945;28;20090;-61
2022/12/30 01:09:11;;;;;;;;;;;5.20;99.90;;;;;;5072914;28;20064;-62
2022/12/30 01:11:36;;;;;;;14.38;2.50;;;5.20;99.90;;;;;;5067660;28;19916;-61
2022/12/30 01:14:02;;;;;;;15.15;2.42;;;5.10;99.90;;;;;;5073101;28;20032;-61
2022/12/30 01:16:28;;;;;;;20.50;5.20;;;5.20;99.90;;;;;;5070609;28;20112;-62
2022/12/30 01:18:53;;;;;;;14.25;2.60;;;5.10;99.90;;;;;;5071247;28;20064;-62
2022/12/30 01:21:19;;;;;;;25.85;3.13;;;5.10;99.90;;;;;;5065550;28;20033;-61
2022/12/30 01:23:44;;;;;;;13.73;3.33;;;5.00;99.90;;;;;;5064845;28;20043;-61
2022/12/30 01:26:10;;;;;;;20.98;3.75;;;5.00;99.90;;;;;;5066523;28;20127;-61
2022/12/30 01:28:37;;;;;;;16.08;4.00;;;4.90;99.90;;;;;;5065920;28;20047;-59
2022/12/30 01:31:08;;;;;;;17.67;4.65;;;4.90;99.90;;;;;;5065001;28;20032;-61
2022/12/30 01:33:34;;;;;;;16.58;2.88;;;4.90;99.90;;;;;;5066471;28;20035;-62
2022/12/30 01:36:00;;;;;;;17.67;3.13;;;4.90;99.90;;;;;;5068757;28;20044;-62
2022/12/30 01:38:28;;;;;;;15.27;2.85;;;4.90;99.90;;;;;;5068065;28;20044;-61
2022/12/30 01:40:54;;;;;;;22.20;4.07;;;4.90;99.90;;;;;;5071457;28;20036;-61
2022/12/30 01:43:20;;;;;;;17.60;3.30;;;4.90;99.90;;;;;;5071026;28;20082;-61
2022/12/30 01:45:51;;;;;;;25.05;3.33;;;4.90;99.90;;;;;;5064581;28;20028;-60
2022/12/30 01:48:25;;;;;;;13.07;2.33;;;4.90;99.90;;;;;;5063653;28;20048;-61
2022/12/30 01:50:58;;;;;;;13.02;2.65;;;4.90;99.90;;;;;;5069051;28;20041;-61
2022/12/30 01:53:23;;;;;;;17.48;2.90;;;4.90;99.90;;;;;;5064344;28;20045;-61
2022/12/30 01:55:57;;;;;;;17.48;2.88;;;5.00;99.90;;;;;;5064846;28;20042;-62
2022/12/30 01:58:34;;;;;;;13.45;2.67;;;5.00;99.90;;;;;;5070238;28;20496;-61
2022/12/30 02:01:00;;;;;;;14.32;3.33;;;4.90;99.90;;;;;;5063191;28;20126;-62
2022/12/30 02:03:33;;;;;;;14.38;3.17;;;4.90;99.90;;;;;;5065264;28;20544;-60
2022/12/30 02:05:59;;;;;;;17.98;2.63;;;4.90;99.90;;;;;;5070814;28;20036;-62
2022/12/30 02:08:27;;;;;;;20.67;3.00;;;4.90;99.90;;;;;;5061792;28;20059;-61
2022/12/30 02:10:55;;;;;;;12.57;2.92;;;4.90;99.90;;;;;;5061754;28;20040;-61
2022/12/30 02:13:21;;;;;;;15.13;3.30;;;4.90;99.90;;;;;;5061709;28;20036;-61
2022/12/30 02:16:18;;;;;;;13.80;2.92;;;5.00;99.90;;;;;;5065659;28;20109;-63
2022/12/30 02:19:18;;;;;;;18.40;2.80;;;5.00;99.90;;;;;;5057870;28;20106;-61
2022/12/30 02:22:04;;;;;;;13.52;2.75;;;5.00;99.90;;;;;;5061438;28;20044;-62
2022/12/30 02:24:56;;;;;;;18.88;3.45;;;5.00;99.90;;;;;;5065422;28;20037;-62
2022/12/30 02:27:31;;;;;;;16.10;2.40;;;5.00;99.90;;;;;;5062601;28;20059;-61
2022/12/30 02:30:05;;;;;;;15.15;3.10;;;5.10;99.90;;;;;;5057944;28;20028;-62
2022/12/30 02:32:58;;;;;;;20.42;4.30;;;5.10;99.90;;;;;;5070342;27;20040;-61
2022/12/30 02:35:36;;;;;;;12.52;3.13;;;5.10;99.90;;;;;;5058944;28;20143;-62
2022/12/30 02:38:11;;;;;;;15.82;3.08;;;5.10;99.90;;;;;;5067894;28;20572;-60
2022/12/30 02:46:30;;;;;;;17.98;3.88;;;5.10;99.90;;;;;;5069985;28;20063;-62
2022/12/30 02:48:57;;;;;;;16.48;2.92;;;5.10;99.90;;;;;;5063822;28;20032;-62
2022/12/30 02:54:10;;;;;;;;;;;5.00;99.90;;;;;;5067356;28;20036;-61
2022/12/30 02:56:35;;;;;;;22.63;3.70;;;4.90;99.90;;;;;;5069961;28;19922;-61
2022/12/30 03:04:59;;;;;;;17.60;3.45;;;4.90;99.90;;;;;;5062954;28;20040;-61
2022/12/30 03:07:49;;;;;;;15.48;3.65;;;4.90;99.90;;;;;;5069857;28;20066;-62
2022/12/30 03:13:34;;;;;;;17.33;2.83;;;4.80;99.90;;;;;;5071529;28;20044;-59
2022/12/30 03:16:28;;;;;;;16.73;2.60;;;4.80;99.90;;;;;;5061476;28;20040;-59
2022/12/30 03:18:55;;;;;;;15.02;3.22;;;4.70;99.90;;;;;;5068380;28;20086;-62
2022/12/30 03:21:23;;;;;;;14.05;3.28;;;4.70;99.90;;;;;;5068481;28;20094;-62
2022/12/30 03:29:27;;;;;;;12.60;2.33;;;4.80;99.90;;;;;;5065840;28;20040;-63
2022/12/30 03:31:53;;;;;;;19.52;2.67;;;4.80;99.90;;;;;;5060151;28;20101;-63
2022/12/30 03:34:19;;;;;;;11.15;3.17;;;4.80;99.90;;;;;;5059635;28;20037;-60
2022/12/30 03:36:48;;;;;;;18.33;4.13;;;4.80;99.90;;;;;;5060588;28;20052;-60
2022/12/30 03:39:30;;;;;;;18.52;3.00;;;4.90;99.90;;;;;;5068188;28;20035;-62
2022/12/30 03:41:57;;;;;;;14.38;2.55;;;4.90;99.90;;;;;;5065985;28;20045;-62
2022/12/30 03:44:23;;;;;;;16.80;3.33;;;4.90;99.90;;;;;;5067287;28;20127;-63
2022/12/30 03:46:49;;;;;;;15.18;3.42;;;4.90;99.90;;;;;;5069201;28;20060;-62
2022/12/30 03:49:16;;;;;;;13.48;2.85;;;4.90;99.90;;;;;;5060890;28;20036;-61
2022/12/30 03:51:42;;;;;;;15.07;3.00;;;5.00;99.90;;;;;;5064965;28;20102;-63
2022/12/30 03:54:08;;;;;;;14.25;2.72;;;5.00;99.90;;;;;;5070681;28;20479;-62
2022/12/30 03:56:33;;;;;;;14.68;2.50;;;5.00;99.90;;;;;;5072017;28;20113;-61
2022/12/30 03:58:59;;;;;;;15.32;3.30;;;5.10;99.90;;;;;;5076460;28;20028;-63
2022/12/30 04:01:25;;;;;;;14.95;2.63;;;5.00;99.90;;;;;;5069868;28;20071;-59
2022/12/30 04:03:50;;;;;;;17.27;3.10;;;5.10;99.90;;;;;;5069586;28;20056;-61
2022/12/30 04:06:16;;;;;;;8.80;2.30;;;5.10;99.90;;;;;;5068057;28;20040;-61
2022/12/30 04:08:42;;;;;;;11.95;2.35;;;5.10;99.90;;;;;;5075134;28;20056;-62
2022/12/30 04:11:07;;;;;;;12.95;2.10;;;5.10;99.90;;;;;;5066542;28;20036;-62
2022/12/30 04:13:33;;;;;;;14.57;2.60;;;5.10;99.90;;;;;;5072124;28;20075;-61
2022/12/30 04:15:58;;;;;;;18.67;3.88;;;5.20;99.90;;;;;;5068208;28;20155;-62
2022/12/30 04:18:24;;;;;;;16.95;2.85;;;5.20;99.90;;;;;;5072131;28;20043;-58
2022/12/30 04:20:50;;;;;;;13.45;2.85;;;5.20;99.90;;;;;;5067418;28;20051;-62
2022/12/30 04:23:16;;;;;;;13.02;2.92;;;5.20;99.90;;;;;;5070971;28;20047;-63
2022/12/30 04:25:42;;;;;;;15.82;2.70;;;5.10;99.90;;;;;;5066846;28;20076;-62
2022/12/30 04:28:08;;;;;;;13.27;2.55;;;5.10;99.90;;;;;;5080176;28;20086;-63
2022/12/30 04:30:34;;;;;;;11.80;2.55;;;5.10;99.90;;;;;;5067019;28;20504;-62
2022/12/30 04:33:00;;;;;;;20.00;2.10;;;5.10;99.90;;;;;;5069149;28;20044;-62
2022/12/30 04:35:25;;;;;;;15.98;3.10;;;5.10;99.90;;;;;;5065104;28;20040;-62
2022/12/30 04:37:51;;;;;;;21.42;2.90;;;5.00;99.90;;;;;;5076148;28;20092;-62
2022/12/30 04:40:17;;;;;;;19.23;2.63;;;5.00;99.90;;;;;;5072281;28;20470;-62
2022/12/30 04:42:43;;;;;;;18.45;3.28;;;5.00;99.90;;;;;;5070828;28;20091;-62
2022/12/30 04:45:09;;;;;;;18.42;3.20;;;5.00;99.90;;;;;;5065016;28;20040;-63
2022/12/30 04:47:35;;;;;;;15.00;2.15;;;4.90;99.90;;;;;;5068796;28;20100;-61
2022/12/30 04:50:01;;;;;;;14.93;2.17;;;4.90;99.90;;;;;;5068639;28;20048;-56
2022/12/30 04:52:26;;;;;;;18.55;2.45;;;5.00;99.90;;;;;;5072327;28;20621;-62
2022/12/30 04:54:52;;;;;;;13.02;2.17;;;5.00;99.90;;;;;;5068248;28;20792;-63
2022/12/30 04:57:18;;;;;;;12.35;2.05;;;5.00;99.90;;;;;;5072566;28;20032;-62
2022/12/30 04:59:43;;;;;;;12.73;2.95;;;5.00;99.90;;;;;;5070522;28;20036;-63
2022/12/30 05:02:09;;;;;;;;;;;4.90;99.90;;;;;;5065213;28;20758;-59
2022/12/30 05:04:35;;;;;;;19.23;3.42;;;4.90;99.90;;;;;;5063006;28;20090;-62
2022/12/30 05:07:02;;;;;;;13.25;2.75;;;4.90;99.90;;;;;;5069188;28;20044;-62
2022/12/30 05:09:27;;;;;;;15.85;2.45;;;4.90;99.90;;;;;;5073345;28;20178;-62
2022/12/30 05:11:53;;;;;;;14.43;2.63;;;4.90;99.90;;;;;;5071583;28;20072;-62
2022/12/30 05:14:19;;;;;;;11.27;2.25;;;5.00;99.90;;;;;;5069482;28;20063;-61
2022/12/30 05:16:44;;;;;;;15.40;2.63;;;5.00;99.90;;;;;;5060164;28;20561;-62
2022/12/30 05:19:10;;;;;;;21.15;2.83;;;5.00;99.90;;;;;;5065440;28;20047;-62
2022/12/30 05:21:36;;;;;;;17.05;2.70;;;5.00;99.90;;;;;;5066073;28;20102;-62
2022/12/30 05:26:46;;;;;;;12.73;1.77;;;5.10;99.90;;;;;;5072297;28;20044;-62
2022/12/30 05:29:11;;;;;;;12.63;2.60;;;5.00;99.90;;;;;;5074237;28;20396;-62
2022/12/30 05:31:37;;;;;;;20.05;2.70;;;5.00;99.90;;;;;;5065563;28;20082;-62
2022/12/30 05:34:03;;;;;;;;;;;4.90;99.90;;;;;;5067455;28;20036;-61
2022/12/30 05:36:28;;;;;;;14.75;2.38;;;4.90;99.90;;;;;;5064112;28;19917;-62
2022/12/30 05:38:54;;;;;;;18.65;2.88;;;4.90;99.90;;;;;;5068784;28;20045;-62
2022/12/30 05:41:20;;;;;;;12.77;2.53;;;4.80;99.90;;;;;;5066926;28;20039;-62
2022/12/30 05:43:46;;;;;;;15.60;2.10;;;4.70;99.90;;;;;;5072029;28;20036;-61
2022/12/30 05:46:11;;;;;;;15.43;2.50;;;4.70;99.90;;;;;;5066968;28;20771;-62
2022/12/30 05:48:37;;;;;;;19.15;3.15;;;4.60;99.90;;;;;;5071206;28;20047;-61
2022/12/30 05:51:03;;;;;;;20.55;2.78;;;4.60;99.90;;;;;;5067064;28;20400;-61
2022/12/30 05:53:28;;;;;;;15.27;2.38;;;4.50;99.90;;;;;;5071080;28;20565;-62
2022/12/30 05:55:54;;;;;;;10.55;1.85;;;4.50;99.90;;;;;;5065003;28;20063;-63
2022/12/30 05:58:20;;;;;;;18.80;3.95;;;4.50;99.90;;;;;;5066635;28;20032;-61
2022/12/30 06:00:45;;;;;;;11.68;2.40;;;4.40;99.90;;;;;;5060222;28;20036;-62
2022/12/30 06:03:11;;;;;;;12.65;1.90;;;4.40;99.90;;;;;;5066748;28;20408;-61
2022/12/30 06:05:36;;;;;;;19.33;2.72;;;4.50;99.90;;;;;;5068730;28;20084;-62
2022/12/30 06:08:02;;;;;;;14.35;2.33;;;4.50;99.90;;;;;;5070370;28;20116;-63
2022/12/30 06:10:28;;;;;;;17.08;2.10;;;4.60;99.90;;;;;;5066381;28;20474;-62
2022/12/30 06:12:53;;;;;;;19.67;3.28;;;4.60;99.90;;;;;;5068558;28;20526;-62
2022/12/30 06:15:19;;;;;;;13.20;2.58;;;4.70;99.90;;;;;;5064441;28;20168;-62
2022/12/30 06:17:45;;;;;;;24.17;2.88;;;4.70;99.90;;;;;;5077883;28;20028;-61
2022/12/30 06:20:10;;;;;;;13.93;2.63;;;4.70;99.90;;;;;;5061450;28;20531;-62
2022/12/30 06:22:36;;;;;;;12.23;2.10;;;4.80;99.90;;;;;;5069816;28;20126;-62
2022/12/30 06:25:02;;;;;;;19.48;2.33;;;4.80;99.90;;;;;;5066315;28;20044;-62
2022/12/30 06:27:28;;;;;;;11.18;2.05;;;4.80;99.90;;;;;;5068388;28;20048;-63
2022/12/30 06:29:53;;;;;;;14.93;2.28;;;4.80;99.90;;;;;;5072116;28;20043;-62
2022/12/30 06:32:19;;;;;;;19.38;3.17;;;4.80;99.90;;;;;;5062769;28;20042;-55
2022/12/30 06:34:44;;;;;;;15.57;2.97;;;4.70;99.90;;;;;;5062829;28;20048;-61
2022/12/30 06:37:10;;;;;;;13.82;3.28;;;4.70;99.90;;;;;;5068200;28;20051;-62
2022/12/30 06:39:36;;;;;;;14.68;2.50;;;4.70;99.90;;;;;;5064655;28;20028;-62
2022/12/30 06:42:01;;;;;;;16.33;2.40;;;4.70;99.90;;;;;;5070909;28;20036;-62
2022/12/30 06:44:27;;;;;;;18.85;2.40;;;4.70;99.90;;;;;;5058054;28;20064;-61
2022/12/30 06:46:52;;;;;;;12.70;2.38;;;4.70;99.90;;;;;;5063003;28;20167;-61
2022/12/30 06:49:18;;;;;;;7.18;1.90;;;4.60;99.90;;;;;;5062810;28;20086;-62
2022/12/30 06:51:44;;;;;;;12.80;2.35;;;4.60;99.90;;;;;;5061871;28;20031;-62
2022/12/30 06:54:09;;;;;;;19.42;2.83;;;4.60;99.90;;;;;;5055617;28;20608;-62
2022/12/30 06:56:35;;;;;;;14.57;2.22;;;4.60;99.90;;;;;;5057732;28;20047;-63
2022/12/30 06:59:00;;;;;;;13.15;2.92;;;4.60;99.90;;;;;;5056278;28;20131;-61
2022/12/30 07:01:26;;;;;;;18.25;2.30;;;4.60;99.90;;;;;;5062113;28;20048;-64
2022/12/30 07:03:52;;;;;;;9.90;2.25;;;4.60;99.90;;;;;;5065276;28;20119;-62
2022/12/30 07:06:17;;;;;;;14.10;2.53;;;4.60;99.90;;;;;;5065423;28;20093;-60
2022/12/30 07:08:43;;;;;;;16.73;2.60;;;4.60;99.90;;;;;;5069984;28;20055;-60
2022/12/30 07:11:08;;;;;;;9.32;2.70;;;4.60;99.90;;;;;;5058387;28;20052;-62
2022/12/30 07:13:34;;;;;;;14.70;2.22;;;4.60;99.90;;;;;;5069360;28;20097;-62
2022/12/30 07:15:59;;;;;;;14.23;2.20;;;4.60;99.90;;;;;;5065103;28;20043;-62
2022/12/30 07:18:25;;;;;;;14.40;2.50;;;4.50;99.90;;;;;;5065284;28;20642;-62
2022/12/30 07:20:50;;;;;;;11.43;2.40;;;4.50;99.90;;;;;;5065835;28;20059;-61
2022/12/30 07:23:16;;;;;;;10.40;1.92;;;4.50;99.90;;;;;;5062410;28;20114;-62
2022/12/30 07:25:45;;;;;;;10.95;2.20;;;4.50;99.90;;;;;;5062364;28;20523;-63
2022/12/30 07:28:11;;;;;;;9.80;2.30;;;4.50;99.90;;;;;;5063796;28;20117;-62
2022/12/30 07:30:37;;;;;;;12.93;2.35;;;4.50;99.90;;;;;;5065502;28;20123;-62
2022/12/30 07:33:02;;;;;;;11.85;2.15;;;4.50;99.90;;;;;;5070993;28;20036;-62
2022/12/30 07:35:28;;;;;;;14.32;2.22;;;4.50;99.90;;;;;;5065564;28;20484;-62
2022/12/30 07:37:54;;;;;;;13.52;2.22;;;4.50;99.90;;;;;;5074204;28;20461;-63
2022/12/30 07:40:19;;;;;;;15.40;2.97;;;4.60;99.90;;;;;;5067763;28;20036;-62
2022/12/30 07:42:46;;;;;;;17.38;2.58;;;4.60;99.90;;;;;;5072045;28;20036;-62
2022/12/30 07:45:12;;;;;;;14.32;2.67;;;4.60;99.90;;;;;;5062930;28;20047;-62
2022/12/30 07:47:37;;;;;;;11.23;2.22;;;4.60;99.90;;;;;;5071758;28;20499;-63
2022/12/30 07:50:05;;;;;;;12.18;2.30;;;4.70;99.90;;;;;;5063120;28;20043;-60
2022/12/30 07:52:31;;;;;;;9.77;1.75;;;4.70;99.90;;;;;;5076335;28;20127;-60
2022/12/30 07:54:57;;;;;;;16.42;1.83;;;4.70;99.90;;;;;;5067742;28;20132;-61
2022/12/30 07:57:22;;;;;;;10.88;2.33;;;4.80;99.90;;;;;;5069309;28;20169;-62
2022/12/30 07:59:48;;;;;;;14.40;2.42;;;4.80;99.90;;;;;;5070002;28;20733;-62
2022/12/30 08:02:13;;;;;;;6.43;1.63;;;4.90;99.90;;;;;;5066725;28;20052;-61
2022/12/30 08:04:39;;;;;;;6.45;1.60;;;4.90;99.90;;;;;;5064546;28;20041;-63
2022/12/30 08:07:05;;;;;;;;;;;4.90;99.90;;;;;;5071283;28;20424;-62
2022/12/30 08:09:31;;;;;;;7.97;1.85;;;5.00;99.90;;;;;;5077183;28;20335;-62
2022/12/30 08:11:56;;;;;;;10.55;2.17;;;5.00;99.90;;;;;;5070641;28;20392;-61
2022/12/30 08:14:22;;;;;;;11.98;1.83;;;5.00;99.90;;;;;;5075914;28;20076;-62
2022/12/30 08:16:47;;;;;;;12.52;2.20;;;5.00;99.90;;;;;;5069184;28;20044;-60
2022/12/30 08:19:13;;;;;;;8.35;1.60;;;5.00;99.90;;;;;;5067657;28;20033;-62
2022/12/30 08:21:39;;;;;;;17.90;2.40;;;5.00;99.90;;;;;;5063504;28;20047;-61
2022/12/30 08:24:05;;;;;;;7.47;1.98;;;5.10;99.90;;;;;;5064787;28;20036;-63
2022/12/30 08:26:30;;;;;;;8.57;1.58;;;5.10;99.90;;;;;;5067661;28;20050;-62
2022/12/30 08:28:56;;;;;;;14.43;1.70;;;5.00;99.90;;;;;;5069468;28;20119;-62
2022/12/30 08:31:24;;;;;;;;;;;5.10;99.90;;;;;;5057666;28;20044;-58
2022/12/30 08:33:50;;;;;;;10.23;2.25;;;5.10;99.90;;;;;;5057364;28;19923;-56
2022/12/30 08:36:20;;;;;;;19.25;1.98;;;5.10;99.90;;;;;;5063450;28;20100;-62
2022/12/30 08:38:48;;;;;;;9.68;1.55;;;5.20;99.90;;;;;;5065754;28;20036;-62
2022/12/30 08:41:23;;;;;;;13.73;1.92;;;5.20;99.90;;;;;;5071398;28;20344;-59
2022/12/30 08:43:50;;;;;;;10.30;1.55;;;5.20;99.90;;;;;;5062223;28;20083;-61
2022/12/30 08:46:17;;;;;;;9.80;1.88;;;5.30;99.90;;;;;;5069439;28;20043;-61
2022/12/30 08:48:43;;;;;;;11.38;1.95;;;5.40;99.90;;;;;;5065575;28;20028;-61
2022/12/30 08:51:10;;;;;;;11.23;1.63;;;5.50;99.90;;;;;;5066975;28;20094;-65
2022/12/30 08:53:36;;;;;;;6.82;1.75;;;5.50;99.90;;;;;;5086761;28;20037;-64
2022/12/30 08:56:06;;;;;;;12.70;2.28;;;5.50;99.90;;;;;;5067919;28;20046;-61
2022/12/30 08:58:32;;;;;;;11.13;1.73;;;5.40;99.90;;;;;;5058657;28;20060;-61
2022/12/30 09:00:58;;;;;;;8.65;1.73;;;5.40;99.90;;;;;;5065248;28;20036;-61
2022/12/30 09:03:24;;;;;;;13.05;1.92;;;5.50;99.90;;;;;;5062917;28;20040;-61
2022/12/30 09:05:54;;;;;;;12.13;1.70;;;5.40;99.90;;;;;;5062881;28;20048;-61
2022/12/30 09:08:21;;;;;;;7.38;1.25;;;5.40;99.90;;;;;;5058257;28;20051;-61
2022/12/30 09:11:20;;;;;;;9.27;1.70;;;5.50;99.90;;;;;;5067748;28;20032;-60
2022/12/30 09:13:46;;;;;;;7.30;1.73;;;5.50;99.90;;;;;;5056498;28;20051;-61
2022/12/30 09:16:17;;;;;;;13.65;1.70;;;5.60;99.90;;;;;;5067664;28;20085;-61
2022/12/30 09:18:43;;;;;;;8.43;1.95;;;5.50;99.90;;;;;;5062648;28;20589;-62
2022/12/30 09:21:09;;;;;;;11.27;1.58;;;5.60;99.90;;;;;;5063254;28;20041;-60
2022/12/30 09:23:35;;;;;;;8.68;1.90;;;5.60;99.90;;;;;;5058268;28;20101;-62
2022/12/30 09:26:03;;;;;;;9.40;2.05;;;5.60;99.90;;;;;;5064056;28;20052;-61
2022/12/30 09:28:28;;;;;;;9.93;2.15;;;5.60;99.90;;;;;;5068735;28;20205;-61
2022/12/30 09:30:54;;;;;;;11.88;1.83;;;5.60;99.90;;;;;;5060625;28;20123;-62
2022/12/30 09:33:20;;;;;;;;;;;5.70;99.90;;;;;;5066342;28;20040;-62
2022/12/30 09:35:45;;;;;;;15.60;1.98;;;5.80;99.90;;;;;;5066450;28;19917;-62
2022/12/30 09:38:11;;;;;;;14.15;2.03;;;5.80;99.90;;;;;;5076495;28;20043;-61
2022/12/30 09:41:01;;;;;;;11.13;1.77;;;5.80;99.90;;;;;;5073363;28;20044;-62
2022/12/30 09:43:47;;;;;;;8.57;2.03;;;5.80;99.90;;;;;;5070480;28;20046;-62
2022/12/30 09:46:39;;;;;;;8.90;1.83;;;5.80;99.90;;;;;;5051714;28;20393;-64
2022/12/30 09:49:31;;;;;;;9.82;1.38;;;5.80;99.90;;;;;;5066292;28;20203;-60
2022/12/30 09:52:04;;;;;;;5.05;1.58;;;5.90;99.90;;;;;;5063946;28;20037;-62
2022/12/30 09:54:33;;;;;;;8.77;1.48;;;6.00;99.90;;;;;;5068021;28;20528;-59
2022/12/30 09:57:30;;;;;;;8.75;1.67;;;6.00;99.90;;;;;;5067859;28;20066;-62
2022/12/30 09:59:56;;;;;;;10.48;2.03;;;6.00;99.90;;;;;;5058493;28;20530;-62
2022/12/30 10:02:38;;;;;;;7.72;1.92;;;6.00;99.90;;;;;;5070512;28;20043;-62
2022/12/30 10:05:11;;;;;;;5.85;2.45;;;6.00;99.90;;;;;;5060968;28;20051;-61
2022/12/30 10:07:49;;;;;;;6.68;1.88;;;6.00;99.90;;;;;;5055287;28;20040;-62
2022/12/30 10:10:23;;;;;;;6.40;1.80;;;6.00;99.90;;;;;;5068129;28;20040;-62
2022/12/30 10:13:25;;;;;;;8.60;2.35;;;6.10;99.90;;;;;;5066521;28;20044;-63
2022/12/30 10:16:09;;;;;;;8.02;1.88;;;6.20;99.90;;;;;;5058590;28;20044;-59
2022/12/30 10:18:45;;;;;;;10.88;2.05;;;6.20;99.90;;;;;;5064693;28;20047;-60
2022/12/30 10:21:37;;;;;;;8.55;2.17;;;6.10;99.90;;;;;;5060112;28;20106;-59
2022/12/30 10:24:33;;;;;;;9.45;2.05;;;6.10;99.90;;;;;;5063026;28;20040;-61
2022/12/30 10:27:13;;;;;;;10.15;1.98;;;6.20;99.90;;;;;;5061103;28;20133;-61
2022/12/30 10:29:41;;;;;;;7.70;1.60;;;6.20;99.90;;;;;;5056098;28;20047;-56
2022/12/30 10:32:21;;;;;;;9.80;2.28;;;6.30;99.90;;;;;;5068289;28;20579;-64
2022/12/30 10:34:52;;;;;;;7.45;1.50;;;6.30;99.90;;;;;;5058715;28;20064;-62
2022/12/30 10:37:38;;;;;;;11.63;2.00;;;6.30;99.90;;;;;;5064100;28;20487;-64
2022/12/30 10:40:12;;;;;;;2.93;1.40;;;6.30;99.90;;;;;;5058778;28;20064;-64
2022/12/30 10:42:46;;;;;;;8.40;1.70;;;6.30;99.90;;;;;;5065664;28;20043;-62
2022/12/30 10:45:27;;;;;;;6.50;1.58;;;6.30;99.90;;;;;;5056324;28;20489;-62
2022/12/30 10:48:12;;;;;;;7.90;2.08;;;6.40;99.90;;;;;;5059882;28;20050;-64
2022/12/30 10:50:43;;;;;;;8.48;1.83;;;6.30;99.90;;;;;;5062081;28;20036;-62
2022/12/30 10:53:17;;;;;;;6.95;1.58;;;6.30;99.90;;;;;;5065299;28;20041;-61
2022/12/30 10:55:52;;;;;;;6.57;1.80;;;6.20;99.90;;;;;;5059032;28;20072;-62
2022/12/30 10:58:29;;;;;;;8.57;2.75;;;6.20;99.90;;;;;;5074026;28;20038;-64
2022/12/30 11:00:55;;;;;;;6.97;1.38;;;6.20;99.90;;;;;;5065730;28;20032;-64
2022/12/30 11:03:31;;;;;;;5.05;1.55;;;6.20;99.90;;;;;;5064242;28;20041;-62
2022/12/30 11:06:20;;;;;;;7.20;2.13;;;6.20;99.90;;;;;;5061665;28;20486;-62
2022/12/30 11:08:46;;;;;;;5.72;1.67;;;6.20;99.90;;;;;;5060280;28;20040;-62
2022/12/30 11:11:13;;;;;;;9.48;2.00;;;6.20;99.90;;;;;;5063212;28;20079;-62
2022/12/30 11:16:32;;;;;;;4.93;1.48;;;6.20;99.90;;;;;;5064269;28;20536;-61
2022/12/30 11:19:01;;;;;;;8.43;1.70;;;6.30;99.90;;;;;;5069226;28;20106;-62
2022/12/30 11:21:30;;;;;;;4.50;1.60;;;6.30;99.90;;;;;;5068759;28;20032;-60
2022/12/30 11:23:58;;;;;;;7.18;1.83;;;6.30;99.90;;;;;;5063103;28;20033;-60
2022/12/30 11:26:27;;;;;;;12.23;1.42;;;6.30;99.90;;;;;;5064395;28;20473;-62
2022/12/30 11:29:06;;;;;;;12.55;1.65;;;6.30;99.90;;;;;;5062203;28;20048;-60
2022/12/30 11:31:45;;;;;;;12.90;1.83;;;6.40;99.90;;;;;;5066767;28;20040;-61
2022/12/30 11:34:33;;;;;;;11.13;1.70;;;6.40;99.90;;;;;;5064452;28;20493;-62
2022/12/30 11:37:19;;;;;;;7.28;1.23;;;6.50;99.90;;;;;;5063247;28;20125;-60
2022/12/30 11:39:45;;;;;;;7.68;1.48;;;6.50;99.90;;;;;;5058674;28;20043;-62
2022/12/30 11:42:27;;;;;;;;;;;6.50;99.90;;;;;;5067820;28;20040;-62
2022/12/30 11:45:12;;;;;;;11.00;2.53;;;6.50;99.90;;;;;;5074300;28;19920;-61
2022/12/30 11:47:46;;;;;;;7.93;1.52;;;6.40;99.90;;;;;;5067883;28;20131;-61
2022/12/30 11:50:17;;;;;;;10.45;1.63;;;6.40;99.90;;;;;;5060943;28;20049;-62
2022/12/30 11:52:50;;;;;;;4.43;1.88;;;6.40;99.90;;;;;;5072839;28;20048;-62
2022/12/30 11:55:23;;;;;;;5.82;1.23;;;6.40;99.90;;;;;;5068918;28;20547;-62
2022/12/30 11:57:51;;;;;;;12.55;2.45;;;6.40;99.90;;;;;;5072272;28;20135;-62
2022/12/30 12:00:17;;;;;;;8.10;1.60;;;6.40;99.90;;;;;;5066941;28;20116;-61
2022/12/30 12:02:48;;;;;;;5.60;1.20;;;6.40;99.90;;;;;;5065664;28;20115;-62
2022/12/30 12:05:20;;;;;;;13.60;2.08;;;6.40;99.90;;;;;;5061431;28;20075;-61
2022/12/30 12:07:47;;;;;;;10.38;1.58;;;6.40;99.90;;;;;;5061313;28;20044;-61
2022/12/30 12:10:35;;;;;;;8.57;1.73;;;6.40;99.90;;;;;;5068107;28;20047;-63
2022/12/30 12:13:06;;;;;;;8.13;1.70;;;6.40;99.90;;;;;;5064941;28;20040;-62
2022/12/30 12:15:51;;;;;;;9.90;1.70;;;6.40;99.90;;;;;;5063081;28;20516;-62
2022/12/30 12:18:36;;;;;;;5.15;1.60;;;6.40;99.90;;;;;;5074260;28;20051;-62
2022/12/30 12:21:21;;;;;;;9.57;1.95;;;6.40;99.90;;;;;;5070479;28;20048;-62
2022/12/30 12:23:51;;;;;;;9.27;1.50;;;6.40;99.90;;;;;;5066384;28;20041;-61
2022/12/30 12:26:17;;;;;;;8.63;1.10;;;6.50;99.90;;;;;;5066881;28;20622;-62
2022/12/30 12:28:44;;;;;;;8.80;1.27;;;6.50;99.90;;;;;;5071858;28;20032;-61
2022/12/30 12:31:21;;;;;;;8.82;1.35;;;6.50;99.90;;;;;;5066763;28;20662;-61
2022/12/30 12:34:19;;;;;;;12.25;1.50;;;6.50;99.90;;;;;;5059892;28;20040;-62
2022/12/30 12:36:44;;;;;;;;;;;6.50;99.90;;;;;;4999519;28;20048;-62
2022/12/30 12:39:12;;;;;;;10.25;1.45;;;6.40;99.90;;;;;;5067974;28;20016;-61
2022/12/30 12:42:01;;;;;;;9.07;1.88;;;6.40;99.90;;;;;;5070607;28;20500;-61
2022/12/30 12:44:58;;;;;;;7.50;1.42;;;6.40;99.90;;;;;;5066997;28;20047;-61
2022/12/30 12:47:32;;;;;;;11.77;1.63;;;6.30;99.90;;;;;;5066480;28;20516;-61
2022/12/30 12:50:36;;;;;;;11.70;1.92;;;6.40;99.90;;;;;;5065302;28;20518;-61
2022/12/30 12:53:39;;;;;;;6.30;1.48;;;6.40;99.90;;;;;;5075129;28;20122;-60
2022/12/30 12:56:32;;;;;;;6.20;1.85;;;6.30;99.90;;;;;;5064302;28;20036;-63
2022/12/30 12:59:17;;;;;;;6.63;2.05;;;6.40;99.90;;;;;;5065067;28;20045;-62
2022/12/30 13:02:11;;;;;;;4.93;1.58;;;6.30;99.90;;;;;;5062857;28;20240;-62
2022/12/30 13:05:24;;;;;;;8.55;1.83;;;6.30;99.90;;;;;;5063976;28;20737;-61
2022/12/30 13:07:56;;;;;;;9.93;1.92;;;6.30;99.90;;;;;;5013724;28;20041;-61
2022/12/30 13:10:47;;;;;;;12.07;1.80;;;6.30;99.90;;;;;;5013638;28;20049;-61
2022/12/30 13:13:34;;;;;;;8.40;2.22;;;6.30;99.90;;;;;;5038492;28;20047;-61
2022/12/30 13:16:06;;;;;;;11.43;1.98;;;6.20;99.90;;;;;;5068301;28;20127;-61
2022/12/30 13:18:35;;;;;;;10.75;2.13;;;6.30;99.90;;;;;;5074697;28;20040;-61
2022/12/30 13:21:05;;;;;;;12.20;2.17;;;6.30;99.90;;;;;;5069017;28;20419;-60
2022/12/30 13:23:38;;;;;;;6.43;1.98;;;6.30;99.90;;;;;;5073515;28;20132;-61
2022/12/30 13:26:04;;;;;;;12.05;2.45;;;6.30;99.90;;;;;;5067939;28;20048;-61
2022/12/30 13:28:35;;;;;;;7.40;2.20;;;6.20;99.90;;;;;;5072546;28;20396;-62
2022/12/30 13:31:12;;;;;;;7.15;1.90;;;6.30;99.90;;;;;;5062232;28;20051;-61
2022/12/30 13:33:55;;;;;;;9.18;2.38;;;6.30;99.90;;;;;;5070920;28;20119;-61
2022/12/30 13:36:56;;;;;;;12.90;2.53;;;6.20;99.90;;;;;;5067161;28;20045;-60
2022/12/30 13:39:30;;;;;;;11.25;2.60;;;6.20;99.90;;;;;;5040930;28;20131;-62
2022/12/30 13:42:08;;;;;;;10.85;2.90;;;6.20;99.90;;;;;;5062088;28;20510;-62
2022/12/30 13:44:39;;;;;;;13.93;2.65;;;6.20;99.90;;;;;;5063783;28;20048;-62
2022/12/30 13:47:06;;;;;;;16.50;3.05;;;6.20;99.90;;;;;;5070100;28;20131;-62
2022/12/30 13:49:38;;;;;;;8.20;3.10;;;6.20;99.90;;;;;;5062231;28;20075;-61
2022/12/30 13:52:18;;;;;;;7.55;2.20;;;6.10;99.90;;;;;;5063889;28;20676;-61
2022/12/30 13:54:53;;;;;;;12.05;2.65;;;6.10;99.90;;;;;;5055830;28;20666;-60
2022/12/30 13:57:40;;;;;;;7.90;2.08;;;6.10;99.90;;;;;;5068530;28;20037;-62
2022/12/30 14:00:22;;;;;;;6.78;2.55;;;6.20;99.90;;;;;;5071111;28;20043;-61
2022/12/30 14:02:58;;;;;;;10.68;2.70;;;6.20;99.90;;;;;;5069413;28;20036;-62
2022/12/30 14:05:36;;;;;;;7.57;1.85;;;6.10;99.90;;;;;;5060968;28;20045;-62
2022/12/30 14:08:03;;;;;;;5.93;2.30;;;6.10;99.90;;;;;;5069406;28;20044;-61
2022/12/30 14:10:41;;;;;;;5.90;1.98;;;6.20;99.90;;;;;;5058243;28;20044;-62
2022/12/30 14:13:31;;;;;;;5.72;3.03;;;6.20;99.90;;;;;;5069951;28;20230;-62